createdAt,value
2023-01-10T00:00:55.514Z,18.50
2023-01-10T00:03:29.560Z,18.20
2023-01-10T00:05:58.271Z,18.40
2023-01-10T00:08:26.836Z,17.90
2023-01-10T00:10:55.493Z,18.00
2023-01-10T00:13:24.103Z,19.10
2023-01-10T00:15:55.537Z,19.50
2023-01-10T00:18:24.010Z,17.90
2023-01-10T00:22:09.851Z,17.80
2023-01-10T00:24:39.353Z,19.00
2023-01-10T00:27:10.045Z,17.60
2023-01-10T00:29:39.140Z,19.20
2023-01-10T00:32:07.581Z,19.40
2023-01-10T00:34:36.885Z,20.30
2023-01-10T00:37:05.340Z,19.30
2023-01-10T00:39:33.920Z,18.10
2023-01-10T00:42:21.400Z,18.00
2023-01-10T00:44:49.972Z,19.80
2023-01-10T00:47:19.052Z,19.20
2023-01-10T00:49:47.780Z,19.10
2023-01-10T00:52:16.447Z,19.00
2023-01-10T00:54:44.931Z,18.70
2023-01-10T00:57:13.894Z,19.40
2023-01-10T00:59:42.492Z,20.30
2023-01-10T01:02:11.214Z,19.10
2023-01-10T01:04:40.364Z,20.00
2023-01-10T01:07:09.058Z,19.10
2023-01-10T01:09:57.461Z,19.30
2023-01-10T01:12:25.949Z,19.90
2023-01-10T01:14:54.563Z,20.30
2023-01-10T01:17:23.156Z,21.30
2023-01-10T01:19:51.682Z,19.60
2023-01-10T01:22:20.645Z,19.50
2023-01-10T01:24:49.310Z,19.90
2023-01-10T01:27:17.833Z,20.40
2023-01-10T01:29:46.256Z,21.60
2023-01-10T01:32:14.898Z,21.10
2023-01-10T01:34:43.634Z,21.70
2023-01-10T01:37:12.120Z,21.10
2023-01-10T01:39:40.591Z,22.20
2023-01-10T01:42:31.846Z,20.60
2023-01-10T01:45:09.622Z,22.10
2023-01-10T01:47:56.271Z,21.40
2023-01-10T01:50:36.615Z,21.80
2023-01-10T01:53:12.435Z,21.70
2023-01-10T02:02:05.475Z,21.70
2023-01-10T02:04:47.169Z,23.00
2023-01-10T02:07:16.070Z,22.30
2023-01-10T02:09:53.950Z,23.40
2023-01-10T02:12:22.982Z,22.40
2023-01-10T02:14:54.359Z,22.00
2023-01-10T02:17:23.019Z,22.10
2023-01-10T02:19:53.395Z,23.20
2023-01-10T02:22:31.010Z,23.10
2023-01-10T02:25:20.038Z,22.00
2023-01-10T02:28:26.174Z,21.70
2023-01-10T02:31:06.864Z,22.00
2023-01-10T02:33:41.351Z,23.80
2023-01-10T02:36:15.672Z,23.60
2023-01-10T02:38:50.426Z,22.90
2023-01-10T02:41:34.503Z,22.80
2023-01-10T02:44:12.472Z,22.80
2023-01-10T02:46:41.496Z,23.60
2023-01-10T02:49:10.167Z,22.80
2023-01-10T02:51:38.536Z,22.90
2023-01-10T02:54:10.120Z,23.00
2023-01-10T02:56:51.426Z,21.90
2023-01-10T02:59:29.110Z,22.30
2023-01-10T03:01:57.508Z,23.30
2023-01-10T03:04:45.807Z,21.80
2023-01-10T03:07:47.179Z,23.90
2023-01-10T03:10:33.143Z,21.50
2023-01-10T03:13:14.461Z,22.50
2023-01-10T03:15:46.222Z,22.50
2023-01-10T03:18:20.751Z,23.30
2023-01-10T03:20:52.089Z,23.20
2023-01-10T03:23:23.105Z,21.20
2023-01-10T03:25:54.283Z,21.60
2023-01-10T03:28:55.702Z,22.40
2023-01-10T03:31:38.212Z,20.90
2023-01-10T03:34:06.910Z,22.20
2023-01-10T03:36:48.530Z,22.40
2023-01-10T03:39:34.098Z,21.00
2023-01-10T03:42:21.181Z,20.70
2023-01-10T03:45:02.585Z,21.30
2023-01-10T03:47:45.717Z,21.20
2023-01-10T03:50:20.374Z,22.70
2023-01-10T03:52:48.965Z,22.30
2023-01-10T03:55:28.448Z,21.00
2023-01-10T03:57:57.408Z,21.10
2023-01-10T04:00:26.507Z,20.10
2023-01-10T04:02:56.058Z,22.00
2023-01-10T04:05:24.704Z,22.00
2023-01-10T04:07:53.208Z,21.30
2023-01-10T04:10:23.392Z,21.50
2023-01-10T04:12:53.639Z,19.50
2023-01-10T04:15:22.052Z,20.50
2023-01-10T04:17:50.826Z,21.60
2023-01-10T04:20:19.597Z,22.40
2023-01-10T04:22:50.011Z,20.90
2023-01-10T04:25:18.529Z,21.00
2023-01-10T04:27:49.942Z,21.00
2023-01-10T04:30:19.259Z,19.10
2023-01-10T04:32:48.378Z,21.00
2023-01-10T04:35:16.898Z,21.90
2023-01-10T04:37:45.256Z,22.40
2023-01-10T04:40:17.331Z,19.10
2023-01-10T04:42:46.283Z,19.40
2023-01-10T04:45:17.931Z,21.40
2023-01-10T04:47:51.521Z,19.70
2023-01-10T04:50:20.113Z,19.70
2023-01-10T04:52:48.758Z,20.00
2023-01-10T04:55:17.316Z,19.80
2023-01-10T04:57:46.130Z,19.00
2023-01-10T05:00:14.815Z,17.20
2023-01-10T05:02:44.468Z,19.90
2023-01-10T05:05:16.422Z,20.60
2023-01-10T05:07:46.392Z,19.80
2023-01-10T05:10:14.958Z,18.90
2023-01-10T05:12:43.717Z,19.30
2023-01-10T05:15:12.811Z,19.90
2023-01-10T05:17:41.482Z,21.90
2023-01-10T05:20:10.857Z,21.80
2023-01-10T05:22:39.661Z,21.60
2023-01-10T05:25:08.687Z,18.90
2023-01-10T05:27:37.056Z,20.60
2023-01-10T05:30:06.392Z,21.30
2023-01-10T05:32:34.816Z,21.10
2023-01-10T05:35:03.430Z,21.80
2023-01-10T05:37:32.056Z,22.10
2023-01-10T05:40:00.503Z,19.70
2023-01-10T05:42:28.898Z,17.50
2023-01-10T05:44:57.280Z,21.10
2023-01-10T05:47:25.740Z,20.40
2023-01-10T05:49:54.223Z,19.50
2023-01-10T05:56:34.952Z,18.50
2023-01-10T05:59:07.969Z,19.30
2023-01-10T06:01:40.741Z,21.30
2023-01-10T06:04:09.527Z,20.60
2023-01-10T06:06:39.049Z,21.50
2023-01-10T06:09:08.129Z,21.10
2023-01-10T06:11:41.018Z,19.90
2023-01-10T06:14:12.500Z,19.00
2023-01-10T06:16:42.351Z,21.20
2023-01-10T06:19:12.352Z,20.40
2023-01-10T06:21:41.127Z,20.20
2023-01-10T06:24:12.675Z,19.30
2023-01-10T06:26:42.055Z,19.20
2023-01-10T06:29:11.082Z,17.90
2023-01-10T06:31:39.882Z,20.70
2023-01-10T06:34:08.562Z,21.30
2023-01-10T06:36:39.022Z,20.20
2023-01-10T06:39:07.787Z,18.70
2023-01-10T06:41:36.802Z,18.40
2023-01-10T06:44:07.830Z,21.00
2023-01-10T06:46:36.649Z,20.30
2023-01-10T06:49:06.027Z,20.00
2023-01-10T06:51:35.973Z,19.60
2023-01-10T06:54:07.488Z,19.00
2023-01-10T06:56:36.329Z,20.00
2023-01-10T06:59:06.655Z,20.80
2023-01-10T07:01:37.320Z,21.90
2023-01-10T07:04:07.069Z,19.00
2023-01-10T07:06:39.908Z,20.50
2023-01-10T07:09:09.154Z,19.80
2023-01-10T07:11:39.524Z,19.90
2023-01-10T07:14:10.397Z,20.20
2023-01-10T07:16:43.821Z,21.20
2023-01-10T07:19:17.224Z,19.70
2023-01-10T07:21:47.325Z,18.90
2023-01-10T07:24:15.761Z,19.90
2023-01-10T07:26:45.353Z,20.80
2023-01-10T07:29:15.962Z,20.50
2023-01-10T07:31:45.344Z,20.90
2023-01-10T07:34:14.651Z,21.20
2023-01-10T07:36:44.174Z,18.60
2023-01-10T07:39:13.419Z,19.00
2023-01-10T07:41:42.249Z,19.00
2023-01-10T07:46:42.399Z,19.60
2023-01-10T07:49:21.264Z,18.80
2023-01-10T07:56:05.101Z,18.90
2023-01-10T08:01:05.588Z,19.80
2023-01-10T08:03:36.067Z,19.30
2023-01-10T08:06:13.801Z,20.20
2023-01-10T08:08:46.032Z,20.40
2023-01-10T08:11:21.187Z,19.00
2023-01-10T08:13:50.595Z,19.40
2023-01-10T08:16:21.321Z,21.00
2023-01-10T08:21:20.600Z,19.80
2023-01-10T08:23:51.840Z,19.90
2023-01-10T08:26:20.678Z,20.30
2023-01-10T08:28:49.307Z,21.00
2023-01-10T08:31:18.957Z,20.50
2023-01-10T08:33:47.775Z,21.00
2023-01-10T08:36:19.710Z,21.50
2023-01-10T08:38:51.062Z,20.90
2023-01-10T08:41:20.330Z,19.50
2023-01-10T08:43:51.093Z,19.20
2023-01-10T08:46:21.064Z,20.50
2023-01-10T08:48:50.630Z,20.10
2023-01-10T08:51:19.812Z,20.00
2023-01-10T08:53:48.674Z,19.50
2023-01-10T08:56:17.345Z,19.80
2023-01-10T08:58:46.190Z,17.30
2023-01-10T09:01:14.955Z,19.00
2023-01-10T09:03:43.997Z,19.40
2023-01-10T09:06:13.717Z,19.20
2023-01-10T09:08:43.207Z,19.90
2023-01-10T09:11:12.716Z,19.40
2023-01-10T09:13:42.643Z,19.50
2023-01-10T09:16:11.950Z,19.50
2023-01-10T09:18:40.821Z,20.10
2023-01-10T09:21:09.531Z,18.30
2023-01-10T09:23:40.105Z,18.80
2023-01-10T09:26:09.157Z,18.50
2023-01-10T09:28:38.050Z,19.50
2023-01-10T09:31:11.798Z,20.30
2023-01-10T09:33:47.130Z,20.50
2023-01-10T09:36:19.249Z,18.80
2023-01-10T09:38:50.899Z,19.10
2023-01-10T09:42:13.597Z,18.90
2023-01-10T09:45:07.959Z,19.50
2023-01-10T09:48:17.891Z,18.40
2023-01-10T09:51:18.236Z,20.70
2023-01-10T09:53:53.498Z,20.30
2023-01-10T09:56:25.871Z,18.90
2023-01-10T09:58:56.799Z,20.30
2023-01-10T10:01:39.786Z,19.40
2023-01-10T10:04:35.958Z,19.40
2023-01-10T10:07:18.876Z,20.50
2023-01-10T10:09:49.991Z,19.80
2023-01-10T10:13:26.397Z,20.30
2023-01-10T10:16:22.498Z,18.50
2023-01-10T10:19:43.824Z,20.40
2023-01-10T10:23:04.453Z,17.60
2023-01-10T10:26:07.977Z,18.80
2023-01-10T10:37:46.500Z,22.20
2023-01-10T10:40:15.158Z,17.80
2023-01-10T10:42:51.349Z,18.90
2023-01-10T10:45:53.642Z,20.40
2023-01-10T10:48:27.570Z,20.50
2023-01-10T10:51:14.646Z,19.20
2023-01-10T10:53:43.129Z,19.60
2023-01-10T10:56:15.115Z,19.10
2023-01-10T10:58:45.298Z,20.40
2023-01-10T11:01:15.415Z,18.50
2023-01-10T11:03:55.208Z,19.80
2023-01-10T11:06:26.023Z,19.10
2023-01-10T11:09:00.382Z,19.80
2023-01-10T11:11:38.405Z,18.90
2023-01-10T11:14:08.948Z,19.80
2023-01-10T11:16:40.640Z,19.50
2023-01-10T11:19:24.485Z,19.70
2023-01-10T11:22:16.811Z,19.20
2023-01-10T11:24:54.738Z,18.50
2023-01-10T11:27:27.083Z,19.60
2023-01-10T11:30:03.352Z,20.60
2023-01-10T11:32:38.987Z,19.50
2023-01-10T11:35:20.247Z,19.50
2023-01-10T11:38:16.728Z,18.70
2023-01-10T11:40:58.136Z,19.80
2023-01-10T11:43:43.645Z,19.10
2023-01-10T11:46:21.721Z,19.30
2023-01-10T11:49:06.088Z,17.20
2023-01-10T11:51:41.014Z,18.30
2023-01-10T12:00:48.285Z,17.30
2023-01-10T12:03:37.465Z,17.40
2023-01-10T12:06:15.307Z,16.30
2023-01-10T12:08:45.574Z,17.70
2023-01-10T12:11:17.440Z,17.30
2023-01-10T12:13:50.531Z,18.20
2023-01-10T12:16:25.273Z,15.60
2023-01-10T12:18:58.072Z,16.00
2023-01-10T12:21:45.734Z,17.70
2023-01-10T12:24:31.130Z,17.30
2023-01-10T12:27:01.592Z,16.60
2023-01-10T12:32:05.618Z,16.20
2023-01-10T12:35:01.420Z,17.70
2023-01-10T12:37:41.167Z,18.10
2023-01-10T12:40:41.589Z,19.60
2023-01-10T12:43:55.633Z,18.30
2023-01-10T12:47:00.375Z,16.40
2023-01-10T12:49:33.823Z,18.50
2023-01-10T12:52:15.573Z,19.10
2023-01-10T12:54:49.745Z,19.80
2023-01-10T12:57:31.555Z,19.70
2023-01-10T13:00:07.783Z,19.30
2023-01-10T13:02:47.003Z,18.30
2023-01-10T13:05:29.826Z,16.80
2023-01-10T13:08:08.298Z,17.70
2023-01-10T13:10:42.081Z,16.10
2023-01-10T13:13:42.520Z,15.30
2023-01-10T13:16:21.344Z,16.10
2023-01-10T13:19:11.832Z,17.00
2023-01-10T13:21:42.702Z,16.10
2023-01-10T13:24:29.208Z,15.90
2023-01-10T13:27:00.316Z,15.10
2023-01-10T13:29:43.141Z,14.30
2023-01-10T13:32:29.662Z,17.10
2023-01-10T13:35:16.385Z,16.90
2023-01-10T13:37:52.868Z,16.70
2023-01-10T13:40:28.488Z,16.70
2023-01-10T13:43:29.666Z,15.50
2023-01-10T13:46:19.883Z,15.20
2023-01-10T13:48:52.293Z,15.90
2023-01-10T13:51:23.022Z,15.70
2023-01-10T13:53:57.182Z,15.70
2023-01-10T13:56:38.615Z,14.60
2023-01-10T13:59:54.800Z,15.20
2023-01-10T14:02:29.515Z,17.00
2023-01-10T14:05:07.284Z,15.90
2023-01-10T14:07:48.329Z,16.40
2023-01-10T14:10:26.384Z,16.00
2023-01-10T14:13:09.640Z,16.00
2023-01-10T14:18:42.096Z,16.30
2023-01-10T14:21:24.701Z,17.00
2023-01-10T14:23:55.443Z,17.20
2023-01-10T14:26:31.991Z,15.60
2023-01-10T14:29:07.376Z,16.60
2023-01-10T14:31:38.961Z,16.10
2023-01-10T14:34:14.604Z,17.10
2023-01-10T14:36:52.974Z,16.00
2023-01-10T14:39:22.728Z,15.90
2023-01-10T14:41:55.413Z,16.30
2023-01-10T14:44:53.042Z,16.10
2023-01-10T14:47:33.813Z,16.00
2023-01-10T14:50:13.999Z,15.70
2023-01-10T14:52:45.931Z,15.30
2023-01-10T14:55:18.782Z,14.60
2023-01-10T14:58:03.018Z,15.20
2023-01-10T15:00:34.774Z,14.10
2023-01-10T15:03:05.269Z,14.40
2023-01-10T15:05:44.839Z,13.50
2023-01-10T15:08:16.553Z,14.70
2023-01-10T15:10:47.855Z,13.50
2023-01-10T15:13:21.976Z,13.20
2023-01-10T15:15:52.536Z,13.10
2023-01-10T15:18:45.491Z,12.20
2023-01-10T15:21:18.406Z,13.20
2023-01-10T15:23:49.192Z,13.30
2023-01-10T15:26:26.116Z,12.90
2023-01-10T15:29:13.412Z,14.10
2023-01-10T15:38:04.566Z,13.30
2023-01-10T15:40:38.297Z,13.10
2023-01-10T15:43:26.803Z,13.50
2023-01-10T15:45:56.874Z,14.00
2023-01-10T15:48:34.006Z,13.80
2023-01-10T15:51:05.305Z,13.00
2023-01-10T15:54:07.715Z,13.40
2023-01-10T15:56:48.800Z,14.60
2023-01-10T15:59:40.854Z,14.60
2023-01-10T16:02:13.157Z,13.50
2023-01-10T16:04:43.822Z,14.90
2023-01-10T16:09:59.874Z,14.00
2023-01-10T16:12:59.664Z,13.80
2023-01-10T16:15:35.842Z,14.30
2023-01-10T16:18:05.009Z,15.20
2023-01-10T16:20:45.957Z,15.60
2023-01-10T16:23:20.737Z,15.00
2023-01-10T16:26:03.522Z,14.90
2023-01-10T16:28:36.778Z,13.80
2023-01-10T16:31:14.701Z,15.30
2023-01-10T16:33:43.571Z,14.90
2023-01-10T16:36:18.145Z,15.30
2023-01-10T16:38:47.443Z,14.90
2023-01-10T16:41:34.876Z,14.40
2023-01-10T16:44:06.900Z,15.10
2023-01-10T16:46:36.102Z,14.60
2023-01-10T16:49:06.858Z,15.40
2023-01-10T16:54:13.860Z,15.10
2023-01-10T16:56:44.674Z,15.30
2023-01-10T16:59:14.782Z,14.60
2023-01-10T17:01:49.526Z,16.60
2023-01-10T17:04:23.864Z,15.40
2023-01-10T17:07:12.446Z,15.40
2023-01-10T17:09:42.938Z,14.70
2023-01-10T17:12:16.855Z,14.20
2023-01-10T17:20:57.595Z,15.50
2023-01-10T17:23:27.458Z,15.70
2023-01-10T17:26:00.814Z,14.80
2023-01-10T17:28:30.141Z,15.60
2023-01-10T17:31:19.966Z,15.20
2023-01-10T17:33:51.543Z,15.80
2023-01-10T17:36:20.719Z,15.20
2023-01-10T17:38:50.332Z,16.50
2023-01-10T17:41:19.272Z,16.20
2023-01-10T17:43:49.512Z,17.00
2023-01-10T17:46:18.290Z,16.00
2023-01-10T17:48:47.227Z,16.40
2023-01-10T17:51:17.869Z,16.10
2023-01-10T17:53:49.179Z,16.20
2023-01-10T17:56:20.372Z,16.40
2023-01-10T17:58:52.033Z,16.80
2023-01-10T18:01:26.262Z,16.30
2023-01-10T18:03:55.208Z,16.80
2023-01-10T18:06:25.721Z,15.10
2023-01-10T18:08:54.788Z,15.20
2023-01-10T18:11:25.405Z,15.60
2023-01-10T18:13:55.143Z,15.80
2023-01-10T18:16:26.324Z,16.50
2023-01-10T18:18:56.569Z,16.30
2023-01-10T18:21:26.489Z,17.00
2023-01-10T18:23:59.940Z,16.20
2023-01-10T18:26:29.315Z,15.30
2023-01-10T18:33:17.906Z,16.10
2023-01-10T18:35:47.500Z,16.70
2023-01-10T18:38:16.518Z,17.80
2023-01-10T18:40:47.503Z,17.80
2023-01-10T18:43:16.081Z,18.70
2023-01-10T18:45:46.901Z,18.40
2023-01-10T18:48:16.716Z,15.70
2023-01-10T18:50:47.471Z,15.50
2023-01-10T18:53:16.215Z,15.50
2023-01-10T18:55:55.389Z,16.60
2023-01-10T18:58:25.835Z,16.10
2023-01-10T19:00:55.379Z,16.00
2023-01-10T19:03:24.548Z,16.50
2023-01-10T19:05:53.220Z,16.30
2023-01-10T19:08:22.504Z,14.80
2023-01-10T19:13:43.587Z,15.90
2023-01-10T19:16:22.295Z,16.20
2023-01-10T19:18:53.419Z,15.80
2023-01-10T19:21:22.298Z,16.60
2023-01-10T19:23:55.690Z,16.20
2023-01-10T19:26:28.999Z,16.10
2023-01-10T19:29:05.456Z,16.00
2023-01-10T19:31:34.013Z,16.80
2023-01-10T19:34:10.145Z,16.90
2023-01-10T19:36:41.809Z,16.40
2023-01-10T19:39:10.968Z,16.70
2023-01-10T19:41:41.441Z,16.50
2023-01-10T19:46:44.247Z,15.40
2023-01-10T19:49:19.119Z,16.60
2023-01-10T19:51:56.225Z,17.90
2023-01-10T19:54:26.206Z,16.80
2023-01-10T19:56:55.397Z,17.50
2023-01-10T19:59:24.503Z,16.60
2023-01-10T20:01:53.285Z,17.60
2023-01-10T20:04:23.116Z,17.80
2023-01-10T20:06:51.824Z,19.60
2023-01-10T20:09:21.037Z,20.20
2023-01-10T20:11:53.824Z,22.20
2023-01-10T20:14:25.326Z,19.70
2023-01-10T20:19:27.084Z,19.70
2023-01-10T20:21:56.306Z,22.30
2023-01-10T20:24:25.424Z,23.00
2023-01-10T20:26:59.468Z,26.00
2023-01-10T20:29:28.576Z,24.90
2023-01-10T20:32:01.212Z,24.70
2023-01-10T20:34:31.914Z,24.00
2023-01-10T20:37:00.945Z,23.10
2023-01-10T20:39:33.894Z,25.70
2023-01-10T20:42:04.866Z,30.10
2023-01-10T20:44:34.113Z,30.10
2023-01-10T20:47:08.451Z,30.40
2023-01-10T20:49:37.449Z,28.00
2023-01-10T20:52:06.725Z,27.40
2023-01-10T20:54:38.873Z,28.30
2023-01-10T20:57:10.659Z,31.30
2023-01-10T20:59:40.927Z,31.00
2023-01-10T21:02:12.166Z,28.90
2023-01-10T21:04:43.492Z,26.40
2023-01-10T21:07:12.980Z,26.90
2023-01-10T21:09:44.176Z,26.50
2023-01-10T21:12:23.424Z,26.20
2023-01-10T21:14:54.089Z,25.90
2023-01-10T21:17:24.998Z,23.60
2023-01-10T21:19:57.672Z,20.80
2023-01-10T21:22:28.713Z,20.60
2023-01-10T21:25:02.045Z,18.50
2023-01-10T21:27:34.132Z,20.30
2023-01-10T21:30:03.392Z,21.40
2023-01-10T21:32:34.314Z,20.10
2023-01-10T21:35:03.489Z,18.40
2023-01-10T21:37:33.655Z,16.70
2023-01-10T21:40:03.436Z,15.80
2023-01-10T21:42:43.217Z,18.10
2023-01-10T21:45:13.829Z,17.90
2023-01-10T21:51:59.475Z,16.20
2023-01-10T21:54:29.014Z,15.60
2023-01-10T21:57:22.828Z,15.70
2023-01-10T21:59:52.459Z,15.70
2023-01-10T22:02:22.741Z,16.10
2023-01-10T22:04:53.283Z,16.30
2023-01-10T22:09:51.577Z,14.60
2023-01-10T22:12:23.069Z,14.20
2023-01-10T22:14:52.145Z,12.50
2023-01-10T22:17:20.795Z,15.10
2023-01-10T22:19:49.327Z,15.40
2023-01-10T22:22:19.172Z,12.90
2023-01-10T22:24:48.375Z,14.70
2023-01-10T22:27:17.675Z,14.40
2023-01-10T22:29:46.072Z,15.60
2023-01-10T22:32:14.943Z,16.00
2023-01-10T22:34:43.776Z,16.70
2023-01-10T22:37:12.430Z,14.00
2023-01-10T22:39:41.116Z,15.70
2023-01-10T22:42:10.202Z,15.30
2023-01-10T22:44:39.837Z,15.90
2023-01-10T22:47:10.231Z,17.40
2023-01-10T22:49:39.737Z,16.00
2023-01-10T22:52:08.826Z,16.30
2023-01-10T22:54:37.927Z,16.80
2023-01-10T22:57:06.493Z,15.20
2023-01-10T23:02:34.367Z,17.30
2023-01-10T23:05:02.795Z,17.20
2023-01-10T23:11:42.984Z,15.70
2023-01-10T23:14:11.394Z,17.40
2023-01-10T23:16:39.826Z,18.30
2023-01-10T23:19:08.221Z,18.20
2023-01-10T23:21:36.565Z,15.30
2023-01-10T23:24:05.465Z,15.20
2023-01-10T23:26:34.106Z,16.40
2023-01-10T23:29:03.777Z,17.70
2023-01-10T23:31:32.715Z,18.30
2023-01-10T23:34:01.287Z,19.10
2023-01-10T23:36:30.126Z,18.70
2023-01-10T23:38:59.761Z,19.00
2023-01-10T23:41:28.836Z,20.20
2023-01-10T23:43:57.828Z,18.30
2023-01-10T23:46:26.514Z,22.40
2023-01-10T23:48:55.187Z,21.00
2023-01-10T23:51:24.933Z,20.40
2023-01-10T23:53:53.481Z,19.50
2023-01-10T23:56:22.292Z,18.70
2023-01-10T23:58:54.752Z,19.30
